sensor_id;sensor_type;location;lat;lon;timestamp;pressure;altitude;pressure_sealevel;temperature;humidity
27958;BME280;15295;42.658;23.374;2022-08-19T00:01:22;94366.50;;;27.33;38.93
27958;BME280;15295;42.658;23.374;2022-08-19T00:04:10;94386.19;;;27.44;38.80
27958;BME280;15295;42.658;23.374;2022-08-19T00:06:49;94393.31;;;27.40;38.93
27958;BME280;15295;42.658;23.374;2022-08-19T00:09:17;94385.66;;;27.46;39.22
27958;BME280;15295;42.658;23.374;2022-08-19T00:11:44;94391.78;;;27.44;39.38
27958;BME280;15295;42.658;23.374;2022-08-19T00:14:13;94389.00;;;27.44;39.99
27958;BME280;15295;42.658;23.374;2022-08-19T00:16:40;94378.53;;;27.45;39.93
27958;BME280;15295;42.658;23.374;2022-08-19T00:19:07;94396.66;;;27.38;40.23
27958;BME280;15295;42.658;23.374;2022-08-19T00:21:33;94379.56;;;27.47;40.17
27958;BME280;15295;42.658;23.374;2022-08-19T00:24:12;94391.47;;;27.92;39.55
27958;BME280;15295;42.658;23.374;2022-08-19T00:26:38;94403.22;;;28.02;39.31
27958;BME280;15295;42.658;23.374;2022-08-19T00:29:05;94400.94;;;28.00;39.07
27958;BME280;15295;42.658;23.374;2022-08-19T00:31:31;94398.88;;;27.90;39.47
27958;BME280;15295;42.658;23.374;2022-08-19T00:33:57;94401.44;;;27.82;39.41
27958;BME280;15295;42.658;23.374;2022-08-19T00:36:22;94404.53;;;27.73;39.93
27958;BME280;15295;42.658;23.374;2022-08-19T00:38:48;94382.34;;;27.59;39.80
27958;BME280;15295;42.658;23.374;2022-08-19T00:41:19;94395.56;;;27.91;39.74
27958;BME280;15295;42.658;23.374;2022-08-19T00:46:37;94399.66;;;27.85;39.80
27958;BME280;15295;42.658;23.374;2022-08-19T00:49:40;94393.53;;;27.81;39.37
27958;BME280;15295;42.658;23.374;2022-08-19T00:52:14;94382.06;;;27.68;39.81
27958;BME280;15295;42.658;23.374;2022-08-19T00:54:47;94363.19;;;27.68;39.29
27958;BME280;15295;42.658;23.374;2022-08-19T00:57:17;94392.25;;;27.76;39.52
27958;BME280;15295;42.658;23.374;2022-08-19T00:59:46;94378.25;;;27.65;39.52
27958;BME280;15295;42.658;23.374;2022-08-19T01:02:14;94392.78;;;27.64;39.86
27958;BME280;15295;42.658;23.374;2022-08-19T01:04:42;94391.00;;;27.72;40.06
27958;BME280;15295;42.658;23.374;2022-08-19T01:07:07;94398.16;;;27.62;40.12
27958;BME280;15295;42.658;23.374;2022-08-19T01:09:33;94398.44;;;27.58;39.68
27958;BME280;15295;42.658;23.374;2022-08-19T01:11:59;94395.59;;;27.52;40.04
27958;BME280;15295;42.658;23.374;2022-08-19T01:14:25;94392.84;;;27.41;40.40
27958;BME280;15295;42.658;23.374;2022-08-19T01:16:51;94388.72;;;27.48;40.59
27958;BME280;15295;42.658;23.374;2022-08-19T01:19:29;94389.19;;;27.74;39.50
27958;BME280;15295;42.658;23.374;2022-08-19T01:22:02;94391.53;;;27.59;40.30
27958;BME280;15295;42.658;23.374;2022-08-19T01:24:28;94390.25;;;27.49;39.98
27958;BME280;15295;42.658;23.374;2022-08-19T01:26:57;94389.00;;;27.44;40.06
27958;BME280;15295;42.658;23.374;2022-08-19T01:29:23;94372.66;;;27.26;40.42
27958;BME280;15295;42.658;23.374;2022-08-19T01:31:48;94377.72;;;27.22;39.85
27958;BME280;15295;42.658;23.374;2022-08-19T01:34:17;94389.75;;;27.28;40.20
27958;BME280;15295;42.658;23.374;2022-08-19T01:36:45;94392.53;;;27.17;39.49
27958;BME280;15295;42.658;23.374;2022-08-19T01:39:14;94382.56;;;27.00;40.09
27958;BME280;15295;42.658;23.374;2022-08-19T01:41:41;94384.38;;;26.92;39.90
27958;BME280;15295;42.658;23.374;2022-08-19T01:44:08;94371.03;;;26.70;40.44
27958;BME280;15295;42.658;23.374;2022-08-19T01:46:36;94393.34;;;26.37;41.28
27958;BME280;15295;42.658;23.374;2022-08-19T01:49:03;94391.94;;;25.62;42.83
27958;BME280;15295;42.658;23.374;2022-08-19T01:51:29;94381.00;;;25.64;43.03
27958;BME280;15295;42.658;23.374;2022-08-19T01:53:56;94384.84;;;25.67;42.83
27958;BME280;15295;42.658;23.374;2022-08-19T01:56:24;94385.81;;;25.58;43.11
27958;BME280;15295;42.658;23.374;2022-08-19T01:58:57;94392.19;;;25.59;43.48
27958;BME280;15295;42.658;23.374;2022-08-19T02:01:23;94377.34;;;25.47;43.69
27958;BME280;15295;42.658;23.374;2022-08-19T02:03:49;94378.38;;;25.50;43.09
27958;BME280;15295;42.658;23.374;2022-08-19T02:06:14;94394.72;;;25.57;43.46
27958;BME280;15295;42.658;23.374;2022-08-19T02:08:42;94390.16;;;25.59;43.29
27958;BME280;15295;42.658;23.374;2022-08-19T02:11:21;94390.00;;;25.79;43.29
27958;BME280;15295;42.658;23.374;2022-08-19T02:13:47;94392.59;;;25.88;43.00
27958;BME280;15295;42.658;23.374;2022-08-19T02:16:16;94381.88;;;25.81;43.25
27958;BME280;15295;42.658;23.374;2022-08-19T02:18:41;94383.88;;;25.75;43.23
27958;BME280;15295;42.658;23.374;2022-08-19T02:21:07;94389.00;;;25.77;43.76
27958;BME280;15295;42.658;23.374;2022-08-19T02:23:32;94389.00;;;25.82;43.56
27958;BME280;15295;42.658;23.374;2022-08-19T02:25:59;94390.34;;;25.92;43.46
27958;BME280;15295;42.658;23.374;2022-08-19T02:28:24;94395.41;;;25.94;43.46
27958;BME280;15295;42.658;23.374;2022-08-19T02:30:49;94398.63;;;26.13;43.53
27958;BME280;15295;42.658;23.374;2022-08-19T02:33:15;94401.41;;;26.13;43.37
27958;BME280;15295;42.658;23.374;2022-08-19T02:35:45;94404.91;;;26.08;43.75
27958;BME280;15295;42.658;23.374;2022-08-19T02:38:12;94389.59;;;25.97;43.88
27958;BME280;15295;42.658;23.374;2022-08-19T02:40:58;94390.84;;;25.96;44.36
27958;BME280;15295;42.658;23.374;2022-08-19T02:43:25;94400.81;;;25.97;43.83
27958;BME280;15295;42.658;23.374;2022-08-19T02:45:55;94403.41;;;26.07;44.05
27958;BME280;15295;42.658;23.374;2022-08-19T02:48:22;94403.19;;;26.16;43.86
27958;BME280;15295;42.658;23.374;2022-08-19T02:50:49;94401.16;;;26.11;43.52
27958;BME280;15295;42.658;23.374;2022-08-19T02:53:24;94404.47;;;26.15;43.44
27958;BME280;15295;42.658;23.374;2022-08-19T02:55:51;94412.38;;;26.11;43.34
27958;BME280;15295;42.658;23.374;2022-08-19T02:58:18;94408.44;;;25.97;43.37
27958;BME280;15295;42.658;23.374;2022-08-19T03:00:52;94386.81;;;26.03;42.87
27958;BME280;15295;42.658;23.374;2022-08-19T03:03:18;94397.97;;;25.92;43.52
27958;BME280;15295;42.658;23.374;2022-08-19T03:05:44;94396.72;;;25.93;43.66
27958;BME280;15295;42.658;23.374;2022-08-19T03:08:21;94406.50;;;26.09;43.10
27958;BME280;15295;42.658;23.374;2022-08-19T03:10:47;94411.16;;;25.86;42.50
27958;BME280;15295;42.658;23.374;2022-08-19T03:13:16;94403.00;;;25.82;42.71
27958;BME280;15295;42.658;23.374;2022-08-19T03:15:49;94403.53;;;25.86;42.54
27958;BME280;15295;42.658;23.374;2022-08-19T03:18:33;94401.69;;;25.72;42.99
27958;BME280;15295;42.658;23.374;2022-08-19T03:20:59;94396.22;;;25.58;43.09
27958;BME280;15295;42.658;23.374;2022-08-19T03:23:24;94381.91;;;25.45;43.40
27958;BME280;15295;42.658;23.374;2022-08-19T03:25:52;94387.81;;;25.52;43.67
27958;BME280;15295;42.658;23.374;2022-08-19T03:28:19;94395.28;;;25.35;43.81
27958;BME280;15295;42.658;23.374;2022-08-19T03:30:59;94394.31;;;25.38;43.74
27958;BME280;15295;42.658;23.374;2022-08-19T03:33:26;94401.06;;;25.26;43.83
27958;BME280;15295;42.658;23.374;2022-08-19T03:36:12;94392.66;;;25.26;44.06
27958;BME280;15295;42.658;23.374;2022-08-19T03:38:41;94406.28;;;25.13;44.84
27958;BME280;15295;42.658;23.374;2022-08-19T03:41:11;94386.91;;;25.04;44.65
27958;BME280;15295;42.658;23.374;2022-08-19T03:43:39;94384.59;;;25.02;44.85
27958;BME280;15295;42.658;23.374;2022-08-19T03:46:10;94398.13;;;25.09;44.39
27958;BME280;15295;42.658;23.374;2022-08-19T03:48:37;94420.63;;;25.26;44.21
27958;BME280;15295;42.658;23.374;2022-08-19T03:51:04;94416.03;;;25.23;44.34
27958;BME280;15295;42.658;23.374;2022-08-19T03:53:31;94418.34;;;25.24;44.24
27958;BME280;15295;42.658;23.374;2022-08-19T03:55:57;94423.16;;;25.24;44.33
27958;BME280;15295;42.658;23.374;2022-08-19T03:58:28;94409.34;;;25.15;44.50
27958;BME280;15295;42.658;23.374;2022-08-19T04:00:55;94420.09;;;25.22;44.60
27958;BME280;15295;42.658;23.374;2022-08-19T04:03:21;94429.09;;;25.32;44.88
27958;BME280;15295;42.658;23.374;2022-08-19T04:05:46;94432.97;;;25.40;44.53
27958;BME280;15295;42.658;23.374;2022-08-19T04:08:27;94434.91;;;25.59;43.80
27958;BME280;15295;42.658;23.374;2022-08-19T04:10:52;94439.75;;;25.59;44.07
27958;BME280;15295;42.658;23.374;2022-08-19T04:13:19;94440.56;;;25.65;44.29
27958;BME280;15295;42.658;23.374;2022-08-19T04:15:45;94436.22;;;25.64;44.61
27958;BME280;15295;42.658;23.374;2022-08-19T04:18:17;94434.50;;;25.72;44.33
27958;BME280;15295;42.658;23.374;2022-08-19T04:20:45;94444.19;;;25.76;43.96
27958;BME280;15295;42.658;23.374;2022-08-19T04:23:12;94445.28;;;25.84;44.10
27958;BME280;15295;42.658;23.374;2022-08-19T04:25:40;94450.41;;;25.91;43.63
27958;BME280;15295;42.658;23.374;2022-08-19T04:31:18;94453.47;;;25.93;42.91
27958;BME280;15295;42.658;23.374;2022-08-19T04:33:45;94450.19;;;26.00;42.93
27958;BME280;15295;42.658;23.374;2022-08-19T04:36:19;94437.31;;;25.72;42.79
27958;BME280;15295;42.658;23.374;2022-08-19T04:38:59;94449.06;;;25.81;43.14
27958;BME280;15295;42.658;23.374;2022-08-19T04:41:26;94447.44;;;25.69;43.08
27958;BME280;15295;42.658;23.374;2022-08-19T04:44:11;94445.31;;;25.53;43.09
27958;BME280;15295;42.658;23.374;2022-08-19T04:46:37;94436.88;;;25.48;43.67
27958;BME280;15295;42.658;23.374;2022-08-19T04:49:07;94440.69;;;25.50;43.65
27958;BME280;15295;42.658;23.374;2022-08-19T04:51:34;94435.78;;;25.14;44.78
27958;BME280;15295;42.658;23.374;2022-08-19T04:54:01;94433.69;;;25.09;45.26
27958;BME280;15295;42.658;23.374;2022-08-19T04:56:27;94438.91;;;25.21;44.99
27958;BME280;15295;42.658;23.374;2022-08-19T04:59:18;94451.66;;;25.28;44.88
27958;BME280;15295;42.658;23.374;2022-08-19T05:01:44;94433.09;;;25.25;44.83
27958;BME280;15295;42.658;23.374;2022-08-19T05:04:15;94452.84;;;25.42;45.10
27958;BME280;15295;42.658;23.374;2022-08-19T05:06:42;94456.19;;;25.46;44.80
27958;BME280;15295;42.658;23.374;2022-08-19T05:09:10;94455.50;;;25.56;44.64
27958;BME280;15295;42.658;23.374;2022-08-19T05:11:37;94453.50;;;25.62;44.77
27958;BME280;15295;42.658;23.374;2022-08-19T05:14:05;94460.81;;;25.54;44.63
27958;BME280;15295;42.658;23.374;2022-08-19T05:16:31;94466.78;;;25.67;44.61
27958;BME280;15295;42.658;23.374;2022-08-19T05:22:18;94446.84;;;25.91;44.07
27958;BME280;15295;42.658;23.374;2022-08-19T05:25:06;94446.13;;;26.01;43.77
27958;BME280;15295;42.658;23.374;2022-08-19T05:27:32;94455.97;;;26.28;44.05
27958;BME280;15295;42.658;23.374;2022-08-19T05:29:58;94459.41;;;26.49;43.52
27958;BME280;15295;42.658;23.374;2022-08-19T05:32:24;94461.81;;;26.72;43.12
27958;BME280;15295;42.658;23.374;2022-08-19T05:34:50;94458.31;;;27.00;42.70
27958;BME280;15295;42.658;23.374;2022-08-19T05:37:15;94463.72;;;27.20;42.11
27958;BME280;15295;42.658;23.374;2022-08-19T05:39:43;94459.34;;;27.13;41.88
27958;BME280;15295;42.658;23.374;2022-08-19T05:42:11;94460.38;;;27.21;42.06
27958;BME280;15295;42.658;23.374;2022-08-19T05:44:39;94451.72;;;27.19;41.85
27958;BME280;15295;42.658;23.374;2022-08-19T05:47:10;94466.00;;;27.32;41.57
27958;BME280;15295;42.658;23.374;2022-08-19T05:49:38;94459.91;;;27.50;41.65
27958;BME280;15295;42.658;23.374;2022-08-19T05:52:05;94458.13;;;27.81;40.89
27958;BME280;15295;42.658;23.374;2022-08-19T05:54:32;94467.56;;;28.00;40.79
27958;BME280;15295;42.658;23.374;2022-08-19T05:56:58;94459.66;;;28.09;40.94
27958;BME280;15295;42.658;23.374;2022-08-19T05:59:25;94457.28;;;28.30;39.94
27958;BME280;15295;42.658;23.374;2022-08-19T06:01:51;94457.25;;;28.41;39.37
27958;BME280;15295;42.658;23.374;2022-08-19T06:04:18;94459.06;;;28.44;39.35
27958;BME280;15295;42.658;23.374;2022-08-19T06:06:46;94463.81;;;28.71;38.80
27958;BME280;15295;42.658;23.374;2022-08-19T06:09:12;94458.91;;;28.83;38.67
27958;BME280;15295;42.658;23.374;2022-08-19T06:11:44;94457.28;;;29.04;37.81
27958;BME280;15295;42.658;23.374;2022-08-19T06:14:14;94474.56;;;29.25;37.70
27958;BME280;15295;42.658;23.374;2022-08-19T06:16:41;94459.09;;;29.42;36.67
27958;BME280;15295;42.658;23.374;2022-08-19T06:19:14;94469.69;;;29.60;36.28
27958;BME280;15295;42.658;23.374;2022-08-19T06:21:44;94476.50;;;29.76;36.58
27958;BME280;15295;42.658;23.374;2022-08-19T06:24:13;94478.88;;;29.96;36.30
27958;BME280;15295;42.658;23.374;2022-08-19T06:26:41;94476.69;;;30.13;36.32
27958;BME280;15295;42.658;23.374;2022-08-19T06:29:15;94472.94;;;30.29;36.98
27958;BME280;15295;42.658;23.374;2022-08-19T06:31:47;94467.69;;;30.44;36.76
27958;BME280;15295;42.658;23.374;2022-08-19T06:34:14;94453.06;;;30.65;36.38
27958;BME280;15295;42.658;23.374;2022-08-19T06:36:43;94476.47;;;30.84;36.38
27958;BME280;15295;42.658;23.374;2022-08-19T06:39:15;94475.13;;;31.09;36.02
27958;BME280;15295;42.658;23.374;2022-08-19T06:41:46;94473.88;;;31.23;35.62
27958;BME280;15295;42.658;23.374;2022-08-19T06:44:12;94468.53;;;31.38;35.24
27958;BME280;15295;42.658;23.374;2022-08-19T06:46:39;94471.91;;;31.55;35.06
27958;BME280;15295;42.658;23.374;2022-08-19T06:49:06;94476.06;;;31.67;34.74
27958;BME280;15295;42.658;23.374;2022-08-19T06:51:33;94464.69;;;31.73;34.23
27958;BME280;15295;42.658;23.374;2022-08-19T06:53:59;94474.59;;;31.79;33.74
27958;BME280;15295;42.658;23.374;2022-08-19T06:56:28;94475.88;;;31.97;33.98
27958;BME280;15295;42.658;23.374;2022-08-19T06:59:10;94472.22;;;32.15;33.87
27958;BME280;15295;42.658;23.374;2022-08-19T07:01:42;94471.88;;;32.19;33.59
27958;BME280;15295;42.658;23.374;2022-08-19T07:04:08;94477.56;;;32.32;33.37
27958;BME280;15295;42.658;23.374;2022-08-19T07:06:35;94477.47;;;32.37;33.03
27958;BME280;15295;42.658;23.374;2022-08-19T07:09:03;94476.94;;;32.39;33.08
27958;BME280;15295;42.658;23.374;2022-08-19T07:11:31;94477.97;;;32.54;33.18
27958;BME280;15295;42.658;23.374;2022-08-19T07:13:58;94486.44;;;32.81;32.66
27958;BME280;15295;42.658;23.374;2022-08-19T07:16:23;94487.41;;;32.96;32.32
27958;BME280;15295;42.658;23.374;2022-08-19T07:18:50;94477.50;;;33.03;32.01
27958;BME280;15295;42.658;23.374;2022-08-19T07:21:24;94486.34;;;33.12;31.90
27958;BME280;15295;42.658;23.374;2022-08-19T07:23:51;94480.84;;;33.27;31.46
27958;BME280;15295;42.658;23.374;2022-08-19T07:26:28;94487.56;;;33.37;31.43
27958;BME280;15295;42.658;23.374;2022-08-19T07:28:55;94483.41;;;33.52;31.13
27958;BME280;15295;42.658;23.374;2022-08-19T07:31:25;94484.69;;;33.64;30.72
27958;BME280;15295;42.658;23.374;2022-08-19T07:33:55;94473.06;;;33.75;30.54
27958;BME280;15295;42.658;23.374;2022-08-19T07:36:28;94485.41;;;33.98;30.31
27958;BME280;15295;42.658;23.374;2022-08-19T07:39:03;94476.22;;;34.05;30.06
27958;BME280;15295;42.658;23.374;2022-08-19T07:41:29;94483.03;;;34.02;30.13
27958;BME280;15295;42.658;23.374;2022-08-19T07:43:58;94478.22;;;34.17;29.70
27958;BME280;15295;42.658;23.374;2022-08-19T07:46:39;94477.25;;;34.36;29.36
27958;BME280;15295;42.658;23.374;2022-08-19T07:49:06;94474.44;;;34.43;29.27
27958;BME280;15295;42.658;23.374;2022-08-19T07:51:33;94472.47;;;34.51;29.10
27958;BME280;15295;42.658;23.374;2022-08-19T07:53:58;94481.84;;;34.67;28.70
27958;BME280;15295;42.658;23.374;2022-08-19T07:56:25;94483.59;;;34.77;28.98
27958;BME280;15295;42.658;23.374;2022-08-19T07:58:51;94486.72;;;34.94;28.34
27958;BME280;15295;42.658;23.374;2022-08-19T08:01:25;94483.97;;;35.02;28.33
27958;BME280;15295;42.658;23.374;2022-08-19T08:03:55;94491.00;;;35.09;28.05
27958;BME280;15295;42.658;23.374;2022-08-19T08:06:40;94486.50;;;35.13;27.84
27958;BME280;15295;42.658;23.374;2022-08-19T08:09:27;94488.41;;;35.18;27.70
27958;BME280;15295;42.658;23.374;2022-08-19T08:11:58;94482.00;;;35.25;27.59
27958;BME280;15295;42.658;23.374;2022-08-19T08:14:28;94485.66;;;35.41;28.22
27958;BME280;15295;42.658;23.374;2022-08-19T08:16:54;94472.22;;;35.41;28.05
27958;BME280;15295;42.658;23.374;2022-08-19T08:19:21;94483.28;;;35.60;27.75
27958;BME280;15295;42.658;23.374;2022-08-19T08:21:50;94478.00;;;35.72;27.22
27958;BME280;15295;42.658;23.374;2022-08-19T08:24:17;94479.19;;;35.91;26.99
27958;BME280;15295;42.658;23.374;2022-08-19T08:26:42;94474.31;;;36.14;26.91
27958;BME280;15295;42.658;23.374;2022-08-19T08:29:10;94472.25;;;36.22;26.27
27958;BME280;15295;42.658;23.374;2022-08-19T08:31:40;94473.03;;;36.46;26.09
27958;BME280;15295;42.658;23.374;2022-08-19T08:34:07;94472.78;;;36.66;25.91
27958;BME280;15295;42.658;23.374;2022-08-19T08:36:36;94468.97;;;36.79;25.55
27958;BME280;15295;42.658;23.374;2022-08-19T08:39:07;94463.66;;;36.75;25.62
27958;BME280;15295;42.658;23.374;2022-08-19T08:42:01;94464.81;;;36.80;25.34
27958;BME280;15295;42.658;23.374;2022-08-19T08:47:14;94467.28;;;36.91;24.91
27958;BME280;15295;42.658;23.374;2022-08-19T08:49:47;94460.16;;;37.22;24.79
27958;BME280;15295;42.658;23.374;2022-08-19T08:52:33;94452.97;;;37.53;24.44
27958;BME280;15295;42.658;23.374;2022-08-19T08:55:05;94456.09;;;37.80;23.87
27958;BME280;15295;42.658;23.374;2022-08-19T08:57:37;94442.97;;;37.77;24.03
27958;BME280;15295;42.658;23.374;2022-08-19T09:00:08;94449.00;;;37.89;23.47
27958;BME280;15295;42.658;23.374;2022-08-19T09:02:39;94452.91;;;38.01;23.58
27958;BME280;15295;42.658;23.374;2022-08-19T09:05:06;94453.63;;;38.09;23.29
27958;BME280;15295;42.658;23.374;2022-08-19T09:15:45;94440.94;;;38.27;22.36
27958;BME280;15295;42.658;23.374;2022-08-19T09:18:14;94437.47;;;38.36;21.79
27958;BME280;15295;42.658;23.374;2022-08-19T09:20:41;94437.47;;;38.36;21.51
27958;BME280;15295;42.658;23.374;2022-08-19T09:23:06;94428.94;;;38.53;21.59
27958;BME280;15295;42.658;23.374;2022-08-19T09:25:33;94435.69;;;38.82;21.41
27958;BME280;15295;42.658;23.374;2022-08-19T09:28:00;94429.66;;;39.12;21.33
27958;BME280;15295;42.658;23.374;2022-08-19T09:30:30;94429.13;;;39.41;21.29
27958;BME280;15295;42.658;23.374;2022-08-19T09:33:03;94420.44;;;39.65;20.39
27958;BME280;15295;42.658;23.374;2022-08-19T09:35:30;94427.06;;;39.94;19.18
27958;BME280;15295;42.658;23.374;2022-08-19T09:37:57;94418.53;;;40.04;18.73
27958;BME280;15295;42.658;23.374;2022-08-19T09:40:23;94419.91;;;40.03;18.53
27958;BME280;15295;42.658;23.374;2022-08-19T09:42:56;94416.13;;;40.00;18.48
27958;BME280;15295;42.658;23.374;2022-08-19T09:45:22;94426.06;;;39.99;18.41
27958;BME280;15295;42.658;23.374;2022-08-19T09:47:52;94413.09;;;39.98;18.17
27958;BME280;15295;42.658;23.374;2022-08-19T09:50:19;94419.91;;;40.03;18.42
27958;BME280;15295;42.658;23.374;2022-08-19T09:52:48;94425.09;;;40.14;18.24
27958;BME280;15295;42.658;23.374;2022-08-19T09:55:14;94423.69;;;40.06;17.87
27958;BME280;15295;42.658;23.374;2022-08-19T09:57:41;94411.16;;;40.01;18.28
27958;BME280;15295;42.658;23.374;2022-08-19T10:00:08;94412.50;;;40.00;17.55
27958;BME280;15295;42.658;23.374;2022-08-19T10:02:34;94408.47;;;40.03;17.46
27958;BME280;15295;42.658;23.374;2022-08-19T10:05:00;94406.84;;;40.10;18.03
27958;BME280;15295;42.658;23.374;2022-08-19T10:07:44;94391.91;;;40.11;17.94
27958;BME280;15295;42.658;23.374;2022-08-19T10:10:09;94396.94;;;40.30;18.07
27958;BME280;15295;42.658;23.374;2022-08-19T10:12:38;94388.38;;;40.39;17.77
27958;BME280;15295;42.658;23.374;2022-08-19T10:15:05;94389.06;;;40.57;18.00
27958;BME280;15295;42.658;23.374;2022-08-19T10:17:31;94392.53;;;40.74;17.72
27958;BME280;15295;42.658;23.374;2022-08-19T10:19:58;94392.25;;;40.80;17.72
27958;BME280;15295;42.658;23.374;2022-08-19T10:22:43;94385.94;;;40.91;17.75
27958;BME280;15295;42.658;23.374;2022-08-19T10:25:09;94395.28;;;40.92;17.64
27958;BME280;15295;42.658;23.374;2022-08-19T10:27:34;94396.00;;;40.63;17.29
27958;BME280;15295;42.658;23.374;2022-08-19T10:30:00;94388.00;;;40.62;17.69
27958;BME280;15295;42.658;23.374;2022-08-19T10:32:27;94381.69;;;40.73;17.46
27958;BME280;15295;42.658;23.374;2022-08-19T10:34:54;94381.88;;;40.94;17.74
27958;BME280;15295;42.658;23.374;2022-08-19T10:37:21;94379.16;;;41.06;17.92
27958;BME280;15295;42.658;23.374;2022-08-19T10:39:47;94378.22;;;41.13;17.51
27958;BME280;15295;42.658;23.374;2022-08-19T10:42:24;94373.53;;;41.17;17.47
27958;BME280;15295;42.658;23.374;2022-08-19T10:44:50;94372.50;;;41.13;17.45
27958;BME280;15295;42.658;23.374;2022-08-19T10:47:15;94378.22;;;41.22;17.40
27958;BME280;15295;42.658;23.374;2022-08-19T10:49:41;94372.81;;;41.26;17.57
27958;BME280;15295;42.658;23.374;2022-08-19T10:52:25;94375.50;;;41.43;17.37
27958;BME280;15295;42.658;23.374;2022-08-19T10:55:01;94372.78;;;41.55;17.25
27958;BME280;15295;42.658;23.374;2022-08-19T10:57:46;94368.22;;;41.62;16.59
27958;BME280;15295;42.658;23.374;2022-08-19T11:00:12;94372.31;;;41.68;17.09
27958;BME280;15295;42.658;23.374;2022-08-19T11:02:38;94364.56;;;41.80;16.87
27958;BME280;15295;42.658;23.374;2022-08-19T11:05:04;94357.59;;;41.83;16.30
27958;BME280;15295;42.658;23.374;2022-08-19T11:07:32;94357.91;;;41.87;16.71
27958;BME280;15295;42.658;23.374;2022-08-19T11:09:57;94353.66;;;41.88;16.61
27958;BME280;15295;42.658;23.374;2022-08-19T11:12:23;94365.50;;;41.73;16.50
27958;BME280;15295;42.658;23.374;2022-08-19T11:14:49;94362.34;;;41.69;16.41
27958;BME280;15295;42.658;23.374;2022-08-19T11:17:15;94361.16;;;41.43;16.81
27958;BME280;15295;42.658;23.374;2022-08-19T11:19:41;94358.16;;;41.32;17.10
27958;BME280;15295;42.658;23.374;2022-08-19T11:22:15;94349.56;;;41.32;17.37
27958;BME280;15295;42.658;23.374;2022-08-19T11:24:56;94355.91;;;41.40;17.65
27958;BME280;15295;42.658;23.374;2022-08-19T11:27:21;94349.22;;;41.57;17.05
27958;BME280;15295;42.658;23.374;2022-08-19T11:29:47;94353.44;;;41.65;17.24
27958;BME280;15295;42.658;23.374;2022-08-19T11:32:12;94339.94;;;41.77;17.33
27958;BME280;15295;42.658;23.374;2022-08-19T11:34:40;94350.78;;;41.88;17.37
27958;BME280;15295;42.658;23.374;2022-08-19T11:37:05;94345.75;;;41.98;17.39
27958;BME280;15295;42.658;23.374;2022-08-19T11:39:33;94336.91;;;42.15;16.83
27958;BME280;15295;42.658;23.374;2022-08-19T11:41:59;94342.66;;;42.15;16.55
27958;BME280;15295;42.658;23.374;2022-08-19T11:44:26;94334.25;;;41.98;16.98
27958;BME280;15295;42.658;23.374;2022-08-19T11:46:51;94340.34;;;41.93;16.91
27958;BME280;15295;42.658;23.374;2022-08-19T11:49:18;94338.03;;;41.70;16.95
27958;BME280;15295;42.658;23.374;2022-08-19T11:51:45;94322.31;;;41.71;17.01
27958;BME280;15295;42.658;23.374;2022-08-19T11:54:12;94329.78;;;41.86;16.91
27958;BME280;15295;42.658;23.374;2022-08-19T11:56:39;94328.88;;;41.83;16.55
27958;BME280;15295;42.658;23.374;2022-08-19T11:59:05;94332.44;;;41.72;16.80
27958;BME280;15295;42.658;23.374;2022-08-19T12:01:31;94325.28;;;41.83;16.86
27958;BME280;15295;42.658;23.374;2022-08-19T12:03:57;94310.97;;;41.73;17.55
27958;BME280;15295;42.658;23.374;2022-08-19T12:06:28;94318.56;;;41.49;17.43
27958;BME280;15295;42.658;23.374;2022-08-19T12:09:06;94306.41;;;39.08;18.93
27958;BME280;15295;42.658;23.374;2022-08-19T12:11:36;94310.66;;;39.34;19.66
27958;BME280;15295;42.658;23.374;2022-08-19T12:14:16;94299.53;;;39.11;19.43
27958;BME280;15295;42.658;23.374;2022-08-19T12:16:44;94303.88;;;38.86;19.99
27958;BME280;15295;42.658;23.374;2022-08-19T12:19:11;94294.81;;;39.06;20.07
27958;BME280;15295;42.658;23.374;2022-08-19T12:21:36;94292.69;;;38.80;20.42
27958;BME280;15295;42.658;23.374;2022-08-19T12:24:03;94291.84;;;38.87;20.14
27958;BME280;15295;42.658;23.374;2022-08-19T12:26:30;94282.81;;;38.47;20.17
27958;BME280;15295;42.658;23.374;2022-08-19T12:28:56;94273.16;;;39.57;19.36
27958;BME280;15295;42.658;23.374;2022-08-19T12:31:26;94268.84;;;38.51;20.83
27958;BME280;15295;42.658;23.374;2022-08-19T12:33:54;94281.25;;;38.80;19.95
27958;BME280;15295;42.658;23.374;2022-08-19T12:36:22;94266.09;;;39.04;19.92
27958;BME280;15295;42.658;23.374;2022-08-19T12:38:48;94274.72;;;38.53;20.06
27958;BME280;15295;42.658;23.374;2022-08-19T12:41:15;94275.34;;;39.49;19.55
27958;BME280;15295;42.658;23.374;2022-08-19T12:43:45;94269.69;;;38.27;20.78
27958;BME280;15295;42.658;23.374;2022-08-19T12:46:11;94266.16;;;38.36;20.22
27958;BME280;15295;42.658;23.374;2022-08-19T12:48:38;94261.44;;;38.82;20.00
27958;BME280;15295;42.658;23.374;2022-08-19T12:51:09;94261.03;;;39.12;19.77
27958;BME280;15295;42.658;23.374;2022-08-19T12:53:35;94252.31;;;39.37;19.24
27958;BME280;15295;42.658;23.374;2022-08-19T12:56:01;94259.78;;;38.62;20.17
27958;BME280;15295;42.658;23.374;2022-08-19T12:58:27;94264.97;;;38.56;20.18
27958;BME280;15295;42.658;23.374;2022-08-19T13:00:54;94253.38;;;38.54;20.15
27958;BME280;15295;42.658;23.374;2022-08-19T13:03:19;94253.81;;;39.11;19.43
27958;BME280;15295;42.658;23.374;2022-08-19T13:05:44;94254.56;;;39.39;19.46
27958;BME280;15295;42.658;23.374;2022-08-19T13:08:10;94247.44;;;38.25;20.26
27958;BME280;15295;42.658;23.374;2022-08-19T13:10:36;94256.91;;;38.11;20.74
27958;BME280;15295;42.658;23.374;2022-08-19T13:13:05;94253.38;;;38.20;20.36
27958;BME280;15295;42.658;23.374;2022-08-19T13:15:39;94258.81;;;38.94;19.37
27958;BME280;15295;42.658;23.374;2022-08-19T13:18:05;94247.81;;;37.88;20.45
27958;BME280;15295;42.658;23.374;2022-08-19T13:20:31;94227.34;;;37.07;21.50